Time;durP1;ratioP1;P1;durP2;ratioP2;P2;SDS_P1;SDS_P2;PMS_P1;PMS_P2;Temp;Humidity;BMP_temperature;BMP_pressure;BME280_temperature;BME280_humidity;BME280_pressure;Samples;Min_cycle;Max_cycle;Signal;HPM_P1;HPM_P2
2021/10/19 05:36:04;;;;;;;8.15;5.68;;;;;;;11.10;81.77;97679.75;5070159;28;20379;-72
2021/10/19 05:38:33;;;;;;;7.67;4.27;;;;;;;10.98;81.58;97677.69;5050383;28;20037;-73
2021/10/19 05:40:58;;;;;;;7.90;4.43;;;;;;;10.93;81.41;97674.34;5049073;28;20434;-73
2021/10/19 05:43:27;;;;;;;7.20;4.13;;;;;;;10.93;81.40;97683.28;5059085;28;20029;-73
2021/10/19 05:45:52;;;;;;;7.47;4.63;;;;;;;10.91;81.48;97688.19;5052519;28;20448;-73
2021/10/19 05:48:17;;;;;;;9.50;4.57;;;;;;;10.89;81.70;97690.41;5067595;28;20028;-74
2021/10/19 05:50:42;;;;;;;7.43;4.40;;;;;;;10.87;81.65;97678.31;5070022;28;20029;-73
2021/10/19 05:53:09;;;;;;;7.03;4.20;;;;;;;10.90;81.38;97680.38;5069688;28;20067;-73
2021/10/19 05:55:34;;;;;;;7.30;4.22;;;;;;;10.99;79.94;97676.59;5069882;28;20032;-73
2021/10/19 05:58:00;;;;;;;5.93;3.33;;;;;;;10.96;80.45;97684.53;5068690;28;20028;-73
2021/10/19 06:00:25;;;;;;;7.22;3.75;;;;;;;10.92;81.60;97686.28;5068366;28;20059;-73
2021/10/19 06:02:50;;;;;;;7.10;3.80;;;;;;;10.86;81.76;97685.66;5068677;28;20083;-75
2021/10/19 06:05:16;;;;;;;7.57;4.13;;;;;;;10.88;81.96;97690.72;5069784;28;20025;-73
2021/10/19 06:07:41;;;;;;;6.27;3.70;;;;;;;10.88;81.34;97688.81;5068556;28;20490;-74
2021/10/19 06:10:07;;;;;;;7.40;3.70;;;;;;;10.92;81.22;97691.69;5061725;28;20033;-75
2021/10/19 06:12:33;;;;;;;7.00;3.95;;;;;;;10.92;81.90;97687.09;5040927;28;20096;-75
2021/10/19 06:14:58;;;;;;;7.23;3.97;;;;;;;10.90;81.81;97688.50;5038476;28;20424;-75
2021/10/19 06:17:23;;;;;;;8.20;4.10;;;;;;;10.90;82.42;97680.38;5042618;28;20026;-75
2021/10/19 06:19:49;;;;;;;7.90;4.40;;;;;;;10.91;82.16;97687.41;5041107;28;20028;-75
2021/10/19 06:22:15;;;;;;;8.10;4.13;;;;;;;10.91;82.17;97699.03;5047631;28;20391;-74
2021/10/19 06:24:40;;;;;;;8.13;4.30;;;;;;;10.93;82.03;97696.00;5047470;28;20033;-75
2021/10/19 06:27:05;;;;;;;8.17;4.20;;;;;;;10.97;81.40;97702.38;5047718;28;20032;-74
2021/10/19 06:29:31;;;;;;;6.37;4.03;;;;;;;11.07;80.26;97704.81;5048956;28;20258;-75
2021/10/19 06:31:56;;;;;;;7.17;3.70;;;;;;;11.12;80.49;97706.53;5048515;28;20121;-73
2021/10/19 06:34:22;;;;;;;7.70;3.70;;;;;;;11.14;80.28;97707.84;5049068;28;20464;-75
2021/10/19 06:36:47;;;;;;;7.18;3.78;;;;;;;11.13;81.84;97700.81;5048984;28;20091;-72
2021/10/19 06:39:13;;;;;;;7.60;3.97;;;;;;;11.13;82.91;97702.72;5049241;28;20079;-74
2021/10/19 06:41:38;;;;;;;7.23;4.10;;;;;;;11.12;81.81;97701.13;5047496;28;20037;-73
2021/10/19 06:44:04;;;;;;;7.83;4.20;;;;;;;11.11;82.10;97703.03;5049131;28;20029;-73
2021/10/19 06:46:29;;;;;;;6.90;4.45;;;;;;;11.06;82.86;97689.66;5040898;28;20450;-74
2021/10/19 06:48:55;;;;;;;7.93;4.13;;;;;;;11.03;82.94;97694.91;5034751;28;20025;-73
2021/10/19 06:51:20;;;;;;;7.77;4.13;;;;;;;10.99;82.95;97706.38;5034896;28;20025;-73
2021/10/19 06:53:45;;;;;;;7.47;4.50;;;;;;;11.02;82.99;97701.41;5034476;28;20037;-73
2021/10/19 06:56:10;;;;;;;7.43;4.10;;;;;;;11.03;83.23;97711.94;5035505;28;20109;-73
2021/10/19 06:58:36;;;;;;;7.07;4.03;;;;;;;11.05;83.17;97715.16;5034429;28;20025;-73
2021/10/19 07:01:02;;;;;;;7.27;4.40;;;;;;;11.11;81.36;97721.19;5034078;28;20029;-73
2021/10/19 07:03:28;;;;;;;6.73;3.73;;;;;;;11.16;81.01;97721.84;5034340;28;20491;-73
2021/10/19 07:05:54;;;;;;;7.13;3.80;;;;;;;11.21;81.05;97729.03;5035442;28;20101;-73
2021/10/19 07:08:20;;;;;;;6.00;3.33;;;;;;;11.24;80.59;97731.91;5034192;28;20384;-73
2021/10/19 07:10:45;;;;;;;6.17;3.37;;;;;;;11.27;80.31;97739.41;5035073;28;20025;-72
2021/10/19 07:13:11;;;;;;;6.60;3.30;;;;;;;11.32;80.03;97733.03;5034068;28;20112;-73
2021/10/19 07:15:36;;;;;;;6.25;3.28;;;;;;;11.37;80.00;97720.09;5033869;28;20017;-75
2021/10/19 07:18:06;;;;;;;5.73;3.37;;;;;;;11.43;80.28;97731.63;5035233;28;20072;-75
2021/10/19 07:20:32;;;;;;;6.70;3.60;;;;;;;11.43;80.53;97723.47;5054692;28;20017;-75
2021/10/19 07:22:59;;;;;;;6.70;3.25;;;;;;;11.50;79.73;97729.22;5034022;28;20188;-76
2021/10/19 07:25:28;;;;;;;6.67;3.50;;;;;;;11.56;79.11;97732.56;5034060;28;20028;-73
2021/10/19 07:27:57;;;;;;;6.45;3.30;;;;;;;11.58;79.50;97716.78;5035102;28;20025;-72
2021/10/19 07:30:22;;;;;;;6.13;3.65;;;;;;;11.65;78.92;97730.66;5033458;28;20022;-73
2021/10/19 07:32:48;;;;;;;7.53;3.20;;;;;;;11.69;78.82;97735.13;5033678;28;20021;-73
2021/10/19 07:35:16;;;;;;;6.18;3.35;;;;;;;11.75;79.15;97731.16;5034610;28;20068;-73
2021/10/19 07:37:44;;;;;;;5.63;2.90;;;;;;;11.78;78.67;97743.28;5033671;28;20033;-72
2021/10/19 07:40:11;;;;;;;5.63;3.30;;;;;;;11.81;78.95;97745.34;5034547;28;20017;-72
2021/10/19 07:42:37;;;;;;;6.03;3.25;;;;;;;11.80;79.50;97746.44;5033449;28;20029;-73
2021/10/19 07:45:05;;;;;;;6.25;3.35;;;;;;;11.80;79.48;97751.06;5034698;28;20071;-73
2021/10/19 07:47:30;;;;;;;6.23;3.00;;;;;;;11.84;79.75;97744.72;5034677;28;20390;-73
2021/10/19 07:49:55;;;;;;;6.35;3.08;;;;;;;11.88;78.64;97748.34;5034581;28;20100;-73
2021/10/19 07:52:21;;;;;;;5.77;2.67;;;;;;;11.95;78.33;97756.00;5033216;28;20121;-73
2021/10/19 07:54:46;;;;;;;5.33;3.00;;;;;;;12.00;78.59;97751.25;5033186;28;20242;-73
2021/10/19 07:57:12;;;;;;;6.23;3.30;;;;;;;12.04;78.37;97754.09;5032757;28;20021;-72
2021/10/19 07:59:37;;;;;;;7.13;3.40;;;;;;;12.11;78.61;97746.25;5033934;28;20033;-73
2021/10/19 08:02:02;;;;;;;6.67;3.33;;;;;;;12.13;78.46;97742.13;5034558;28;20029;-73
2021/10/19 08:04:28;;;;;;;5.95;2.80;;;;;;;12.14;79.60;97738.28;5033130;28;20021;-73
2021/10/19 08:06:53;;;;;;;5.60;3.03;;;;;;;12.28;79.17;97740.81;5033044;28;20037;-74
2021/10/19 08:09:19;;;;;;;5.23;2.53;;;;;;;12.35;79.33;97753.88;5034300;28;20026;-73
2021/10/19 08:11:44;;;;;;;5.63;2.92;;;;;;;12.44;79.49;97754.63;5032719;28;20040;-73
2021/10/19 08:14:10;;;;;;;12.90;7.13;;;;;;;11.95;81.31;97761.44;5034116;28;20025;-73
2021/10/19 08:16:35;;;;;;;12.87;7.40;;;;;;;11.68;84.07;97770.69;5034096;28;20053;-72
2021/10/19 08:19:00;;;;;;;14.60;8.00;;;;;;;11.60;83.94;97769.56;5034099;28;20025;-73
2021/10/19 08:21:26;;;;;;;15.17;8.30;;;;;;;11.49;85.23;97773.72;5032413;28;20104;-74
2021/10/19 08:23:52;;;;;;;14.63;7.88;;;;;;;11.28;85.91;97778.94;5033899;28;20528;-72
2021/10/19 08:26:17;;;;;;;15.60;8.07;;;;;;;11.35;86.19;97775.75;5033927;28;20033;-72
2021/10/19 08:28:47;;;;;;;17.53;8.60;;;;;;;11.28;86.76;97770.00;5032644;28;20022;-73
2021/10/19 08:31:14;;;;;;;19.02;8.07;;;;;;;11.26;86.53;97766.81;5032333;28;20056;-72
2021/10/19 08:33:43;;;;;;;14.27;8.13;;;;;;;11.39;85.98;97780.22;5033784;28;20029;-72
2021/10/19 08:36:09;;;;;;;17.63;8.52;;;;;;;11.38;86.45;97775.13;5032351;28;20029;-73
2021/10/19 08:38:35;;;;;;;15.53;7.93;;;;;;;11.38;87.58;97770.50;5033646;28;20029;-73
2021/10/19 08:41:00;;;;;;;15.82;7.80;;;;;;;11.39;88.30;97777.50;5032117;28;20047;-73
2021/10/19 08:43:26;;;;;;;15.07;8.03;;;;;;;11.36;91.11;97785.50;5032359;28;20490;-73
2021/10/19 08:45:52;;;;;;;15.65;8.90;;;;;;;11.19;92.83;97791.66;5033543;28;20097;-73
2021/10/19 08:48:18;;;;;;;14.57;8.10;;;;;;;11.10;94.57;97790.03;5032262;28;20029;-73
2021/10/19 08:50:43;;;;;;;11.50;7.10;;;;;;;10.92;96.20;97789.19;5033289;28;20267;-73
2021/10/19 08:53:09;;;;;;;12.70;7.23;;;;;;;10.94;95.91;97787.75;5032216;28;20609;-72
2021/10/19 08:55:34;;;;;;;9.67;6.20;;;;;;;10.83;96.80;97786.47;5033319;28;20028;-73
2021/10/19 08:58:02;;;;;;;11.27;6.20;;;;;;;10.85;98.25;97778.81;5032161;28;20029;-73
2021/10/19 09:00:29;;;;;;;10.52;4.80;;;;;;;10.87;99.02;97773.88;5031881;28;20118;-74
2021/10/19 09:02:55;;;;;;;9.07;4.55;;;;;;;10.92;99.92;97775.66;5032034;28;20048;-73
2021/10/19 09:05:25;;;;;;;6.80;3.80;;;;;;;10.94;100.00;97771.50;5031902;28;20032;-74
2021/10/19 09:07:57;;;;;;;8.52;4.10;;;;;;;11.01;99.66;97778.41;5032046;28;20029;-73
2021/10/19 09:10:23;;;;;;;8.03;3.80;;;;;;;11.07;98.52;97772.53;5032920;28;20029;-73
2021/10/19 09:13:00;;;;;;;6.78;4.20;;;;;;;11.12;98.00;97768.84;5033102;28;20029;-73
2021/10/19 09:15:30;;;;;;;7.13;4.10;;;;;;;11.16;97.29;97776.03;5031795;28;20033;-73
2021/10/19 09:18:08;;;;;;;7.05;3.67;;;;;;;11.19;97.37;97774.59;5031744;28;20113;-73
2021/10/19 09:20:42;;;;;;;8.05;3.90;;;;;;;11.23;97.44;97775.56;5013408;28;20026;-74
2021/10/19 09:23:09;;;;;;;6.47;3.53;;;;;;;11.22;96.83;97780.22;5031855;28;20394;-73
2021/10/19 09:25:40;;;;;;;7.80;4.05;;;;;;;11.18;96.87;97776.53;5032992;28;20485;-73
2021/10/19 09:28:08;;;;;;;6.68;3.75;;;;;;;11.23;94.97;97770.94;5033025;28;20026;-73
2021/10/19 09:30:44;;;;;;;8.63;4.47;;;;;;;11.23;95.18;97772.84;5032764;28;20027;-74
2021/10/19 09:33:17;;;;;;;8.05;4.15;;;;;;;11.25;94.80;97760.59;5031772;28;20112;-73
2021/10/19 09:35:44;;;;;;;8.73;4.57;;;;;;;11.21;94.81;97766.97;5031472;28;20409;-74
2021/10/19 09:38:12;;;;;;;10.02;4.78;;;;;;;11.23;95.90;97759.31;5031641;28;20083;-74
2021/10/19 09:40:46;;;;;;;8.07;4.30;;;;;;;11.25;94.84;97752.47;5031445;28;20037;-73
2021/10/19 09:43:25;;;;;;;7.28;4.30;;;;;;;11.27;96.20;97749.44;5031564;28;20056;-73
2021/10/19 09:45:55;;;;;;;8.18;4.25;;;;;;;11.33;94.90;97757.09;5032866;28;20053;-74
2021/10/19 09:48:27;;;;;;;8.50;4.70;;;;;;;11.37;94.89;97757.25;5031468;28;20025;-73
2021/10/19 09:50:53;;;;;;;7.75;4.40;;;;;;;11.41;95.71;97762.84;5032539;28;20112;-74
2021/10/19 09:53:20;;;;;;;7.57;4.50;;;;;;;11.50;95.42;97766.38;5032700;28;20037;-73
2021/10/19 09:55:49;;;;;;;7.80;4.55;;;;;;;11.54;95.36;97770.03;5032711;28;20027;-73
2021/10/19 09:58:16;;;;;;;8.98;4.20;;;;;;;11.57;96.29;97766.69;5032678;28;20045;-73
2021/10/19 10:00:43;;;;;;;7.97;4.17;;;;;;;11.61;96.53;97768.44;5032648;28;20033;-73
2021/10/19 10:03:11;;;;;;;8.38;4.40;;;;;;;11.66;96.31;97764.78;5032557;28;20025;-73
2021/10/19 10:05:36;;;;;;;6.78;4.00;;;;;;;11.73;95.68;97770.50;5031384;28;20112;-73
2021/10/19 10:08:04;;;;;;;6.67;3.80;;;;;;;11.83;94.35;97764.00;5031186;28;20117;-74
2021/10/19 10:10:29;;;;;;;7.07;3.65;;;;;;;11.88;94.34;97748.34;5031192;28;20380;-73
2021/10/19 10:13:02;;;;;;;6.57;3.43;;;;;;;11.94;93.75;97747.06;5032570;28;20033;-73
2021/10/19 10:15:34;;;;;;;6.15;3.50;;;;;;;12.02;94.21;97738.13;5031220;28;20021;-73
2021/10/19 10:18:09;;;;;;;6.20;3.67;;;;;;;12.06;94.29;97741.00;5032447;28;20490;-74
2021/10/19 10:20:47;;;;;;;7.28;3.60;;;;;;;12.08;94.93;97747.69;5012688;28;20055;-73
2021/10/19 10:23:20;;;;;;;6.97;3.33;;;;;;;12.13;95.04;97736.69;5035063;28;20043;-73
2021/10/19 10:25:49;;;;;;;6.53;3.78;;;;;;;12.19;94.08;97728.38;5034931;28;20057;-74
2021/10/19 10:28:16;;;;;;;6.65;3.63;;;;;;;12.19;94.60;97725.66;5036067;28;20036;-73
2021/10/19 10:30:41;;;;;;;5.85;2.90;;;;;;;12.10;95.44;97725.66;5035855;28;20428;-73
2021/10/19 10:33:07;;;;;;;6.23;3.47;;;;;;;12.12;95.85;97724.22;5034721;28;20099;-73
2021/10/19 10:35:34;;;;;;;5.85;3.20;;;;;;;12.09;95.38;97727.59;5036060;28;20482;-73
2021/10/19 10:38:03;;;;;;;6.03;3.40;;;;;;;12.15;95.83;97734.44;5035932;28;20040;-73
2021/10/19 10:40:35;;;;;;;5.53;3.30;;;;;;;12.10;96.27;97739.22;5035751;28;20095;-73
2021/10/19 10:43:16;;;;;;;6.43;3.30;;;;;;;12.07;96.85;97732.56;5034541;28;20029;-73
2021/10/19 10:45:42;;;;;;;7.53;3.70;;;;;;;12.07;96.67;97729.84;5034663;28;20082;-74
2021/10/19 10:48:07;;;;;;;6.40;3.25;;;;;;;12.04;96.25;97735.91;5035694;28;20037;-73
2021/10/19 10:50:35;;;;;;;6.27;3.20;;;;;;;12.08;96.74;97725.19;5035614;28;20033;-73
2021/10/19 10:53:08;;;;;;;6.25;3.50;;;;;;;12.05;96.56;97720.41;5035615;28;20021;-73
2021/10/19 10:55:37;;;;;;;5.75;3.20;;;;;;;12.03;96.48;97723.44;5034451;28;20033;-74
2021/10/19 10:58:03;;;;;;;6.03;3.60;;;;;;;12.06;97.67;97730.16;5035481;28;20033;-73
2021/10/19 11:00:28;;;;;;;6.67;3.27;;;;;;;12.12;98.75;97724.22;5034138;28;20033;-73
2021/10/19 11:03:17;;;;;;;6.57;3.13;;;;;;;12.12;98.20;97716.09;5035440;28;20029;-73
2021/10/19 11:05:53;;;;;;;5.07;3.00;;;;;;;12.13;98.13;97714.97;5034324;28;20140;-73
2021/10/19 11:08:24;;;;;;;5.28;3.20;;;;;;;12.14;97.52;97708.44;5034045;28;20112;-73
2021/10/19 11:11:10;;;;;;;6.68;3.35;;;;;;;12.21;97.53;97710.66;5035173;28;20483;-74
2021/10/19 11:13:49;;;;;;;5.63;3.20;;;;;;;12.24;96.86;97704.56;5033499;28;20482;-73
2021/10/19 11:16:16;;;;;;;6.25;3.00;;;;;;;12.32;97.15;97700.22;5034048;28;20550;-73
2021/10/19 11:18:42;;;;;;;6.23;3.10;;;;;;;12.40;96.66;97692.06;5035015;28;20026;-73
2021/10/19 11:21:07;;;;;;;5.32;3.08;;;;;;;12.52;97.12;97696.78;5035046;28;20433;-73
2021/10/19 11:23:40;;;;;;;5.67;3.00;;;;;;;12.52;95.35;97689.44;5033906;28;20454;-73
2021/10/19 11:26:08;;;;;;;5.65;3.15;;;;;;;12.49;94.38;97689.31;5033797;28;20025;-74
2021/10/19 11:28:36;;;;;;;5.93;3.40;;;;;;;12.49;94.41;97679.25;5033753;28;20029;-73
2021/10/19 11:31:03;;;;;;;5.57;2.85;;;;;;;12.53;94.60;97672.03;5034906;28;20021;-73
2021/10/19 11:33:37;;;;;;;5.23;2.97;;;;;;;12.54;93.77;97673.63;5034842;28;20030;-73
2021/10/19 11:36:04;;;;;;;5.00;2.97;;;;;;;12.61;94.09;97673.13;5034919;28;20445;-73
2021/10/19 11:38:29;;;;;;;5.65;2.60;;;;;;;12.63;92.60;97665.44;5034834;28;20064;-73
2021/10/19 11:41:25;;;;;;;5.00;2.70;;;;;;;12.77;92.78;97674.16;5034743;28;20111;-73
2021/10/19 11:43:56;;;;;;;6.15;2.90;;;;;;;12.79;92.03;97669.16;5026236;28;20041;-74
2021/10/19 11:46:24;;;;;;;5.50;2.80;;;;;;;12.87;91.23;97667.53;5034771;28;20032;-72
2021/10/19 11:48:52;;;;;;;5.40;2.70;;;;;;;12.93;91.32;97666.19;5034890;28;20459;-73
2021/10/19 11:51:20;;;;;;;5.37;2.90;;;;;;;13.09;90.58;97678.09;5034504;28;20072;-73
2021/10/19 11:53:47;;;;;;;6.15;3.00;;;;;;;13.15;89.95;97671.34;5034534;28;20384;-73
2021/10/19 11:56:14;;;;;;;5.15;3.17;;;;;;;13.14;90.33;97672.50;5033092;28;20017;-73
2021/10/19 11:59:00;;;;;;;6.00;2.90;;;;;;;13.25;90.71;97667.47;5033140;28;20098;-73
2021/10/19 12:01:26;;;;;;;5.15;3.00;;;;;;;13.20;89.49;97670.38;5034274;28;20026;-73
2021/10/19 12:03:55;;;;;;;6.87;2.90;;;;;;;13.20;88.69;97673.91;5034317;28;20028;-73
2021/10/19 12:06:29;;;;;;;4.38;2.53;;;;;;;13.16;88.38;97662.09;5033044;28;20029;-74
2021/10/19 12:08:56;;;;;;;4.63;2.53;;;;;;;13.09;88.06;97664.50;5034173;28;20504;-73
2021/10/19 12:11:27;;;;;;;5.55;2.88;;;;;;;13.01;89.45;97656.41;5033078;28;20395;-73
2021/10/19 12:13:57;;;;;;;6.30;2.80;;;;;;;12.93;90.38;97658.84;5034078;28;20037;-73
2021/10/19 12:16:32;;;;;;;5.20;3.03;;;;;;;12.94;90.51;97649.56;5032965;28;20025;-74
2021/10/19 12:19:00;;;;;;;6.00;2.75;;;;;;;12.93;90.84;97653.41;5032600;28;20399;-73
2021/10/19 12:21:27;;;;;;;5.28;2.78;;;;;;;12.93;91.36;97653.41;5033845;28;20029;-72
2021/10/19 12:23:58;;;;;;;5.65;2.70;;;;;;;12.97;91.37;97650.06;5033919;28;20425;-73
2021/10/19 12:26:26;;;;;;;5.72;3.10;;;;;;;12.88;91.66;97645.47;5032673;28;20030;-73
2021/10/19 12:28:53;;;;;;;5.00;2.87;;;;;;;12.85;93.04;97637.19;5033888;28;20029;-73
2021/10/19 12:31:20;;;;;;;6.47;3.08;;;;;;;12.69;95.39;97625.31;5033650;28;20021;-73
2021/10/19 12:33:59;;;;;;;6.03;3.10;;;;;;;12.50;97.33;97625.75;5032290;28;20021;-73
2021/10/19 12:36:30;;;;;;;5.80;3.05;;;;;;;12.49;98.09;97618.72;5032573;28;20033;-75
2021/10/19 12:39:03;;;;;;;5.93;3.10;;;;;;;12.44;98.39;97621.59;5032453;28;20031;-75
2021/10/19 12:41:34;;;;;;;5.90;3.40;;;;;;;12.48;98.51;97609.78;5032552;28;20033;-75
2021/10/19 12:44:01;;;;;;;5.65;3.35;;;;;;;12.59;98.95;97618.31;5033136;28;20029;-75
2021/10/19 12:46:27;;;;;;;6.47;3.30;;;;;;;12.63;98.55;97613.84;5032593;28;20056;-75
2021/10/19 12:49:02;;;;;;;6.22;3.50;;;;;;;12.64;98.23;97610.00;5033406;28;20522;-75
2021/10/19 12:51:28;;;;;;;7.03;3.30;;;;;;;12.70;98.47;97605.19;5033386;28;20029;-75
2021/10/19 12:53:54;;;;;;;5.80;3.60;;;;;;;12.74;97.80;97606.88;5032050;28;20029;-75
2021/10/19 12:56:25;;;;;;;6.07;3.60;;;;;;;12.77;97.45;97603.53;5033480;28;20061;-74
2021/10/19 12:58:52;;;;;;;7.45;3.38;;;;;;;12.83;96.77;97602.19;5032031;28;20484;-75
2021/10/19 13:01:17;;;;;;;6.20;3.25;;;;;;;12.86;97.11;97601.53;5033278;28;20029;-75
2021/10/19 13:03:42;;;;;;;7.17;3.70;;;;;;;12.95;96.13;97599.56;5033253;28;20095;-75
2021/10/19 13:06:09;;;;;;;6.43;3.23;;;;;;;13.01;96.40;97599.34;5033302;28;20032;-76
2021/10/19 13:08:37;;;;;;;7.55;3.60;;;;;;;13.13;95.62;97594.03;5031894;28;20026;-74
2021/10/19 13:11:03;;;;;;;7.13;3.50;;;;;;;13.26;94.74;97587.50;5033034;28;20026;-75
2021/10/19 13:13:29;;;;;;;6.13;3.42;;;;;;;13.37;94.59;97602.25;5031767;28;20387;-72
2021/10/19 13:15:55;;;;;;;9.03;3.53;;;;;;;13.50;94.04;97592.25;5033043;28;20029;-72
2021/10/19 13:18:21;;;;;;;6.10;3.78;;;;;;;13.59;93.19;97587.50;5032982;28;20483;-73
2021/10/19 13:20:46;;;;;;;7.25;3.50;;;;;;;13.62;91.99;97584.91;5031572;28;20029;-75
2021/10/19 13:23:12;;;;;;;7.07;3.70;;;;;;;13.65;92.74;97583.44;5033058;28;20025;-72
2021/10/19 13:25:37;;;;;;;7.17;3.60;;;;;;;13.65;92.18;97588.88;5031662;28;20505;-73
2021/10/19 13:28:03;;;;;;;6.35;3.40;;;;;;;13.66;92.62;97580.38;5031756;28;20475;-73
2021/10/19 13:30:29;;;;;;;7.33;4.00;;;;;;;13.71;91.99;97584.81;5032756;28;20091;-72
2021/10/19 13:32:54;;;;;;;7.55;3.65;;;;;;;13.72;91.26;97583.66;5031742;28;20029;-73
2021/10/19 13:35:21;;;;;;;6.50;3.63;;;;;;;13.77;90.27;97583.47;5032673;28;20506;-73
2021/10/19 13:37:46;;;;;;;6.72;3.75;;;;;;;13.83;90.19;97578.59;5032877;28;20033;-72
2021/10/19 13:40:13;;;;;;;8.10;3.70;;;;;;;13.88;89.68;97578.38;5032645;28;20029;-72
2021/10/19 13:42:39;;;;;;;6.43;3.55;;;;;;;13.96;90.28;97585.66;5032835;28;20480;-72
2021/10/19 13:45:05;;;;;;;6.82;3.90;;;;;;;14.02;89.13;97579.66;5032737;28;20031;-72
2021/10/19 13:47:30;;;;;;;6.67;3.70;;;;;;;14.14;88.39;97575.38;5031573;28;20063;-72
2021/10/19 13:49:56;;;;;;;7.47;3.80;;;;;;;14.23;87.05;97581.47;5031408;28;20277;-73
2021/10/19 13:52:21;;;;;;;7.10;3.73;;;;;;;14.32;85.17;97580.22;5031332;28;20021;-73
2021/10/19 13:54:47;;;;;;;6.47;3.28;;;;;;;14.42;83.98;97579.78;5031300;28;20023;-72
2021/10/19 13:57:13;;;;;;;7.17;3.70;;;;;;;14.46;84.68;97569.81;5035417;28;20048;-72
2021/10/19 13:59:39;;;;;;;6.70;3.58;;;;;;;14.47;84.05;97574.13;5036576;28;20395;-72
2021/10/19 14:02:05;;;;;;;5.60;3.57;;;;;;;14.49;83.63;97573.78;5036580;28;20563;-72
2021/10/19 14:04:31;;;;;;;6.80;3.55;;;;;;;14.52;82.80;97564.91;5035273;28;20112;-73
2021/10/19 14:06:57;;;;;;;6.00;3.45;;;;;;;14.47;83.51;97560.50;5035261;28;20108;-73
2021/10/19 14:09:25;;;;;;;5.87;3.60;;;;;;;14.44;83.46;97563.91;5036468;28;20025;-72
2021/10/19 14:11:51;;;;;;;8.00;3.80;;;;;;;14.47;82.80;97562.44;5034976;28;20029;-73
2021/10/19 14:14:16;;;;;;;6.25;3.53;;;;;;;14.43;83.43;97561.53;5034965;28;20083;-72
2021/10/19 14:16:42;;;;;;;6.23;3.43;;;;;;;14.47;82.62;97570.59;5036524;28;20037;-73
2021/10/19 14:19:07;;;;;;;8.70;4.13;;;;;;;14.45;82.59;97567.44;5036127;28;20099;-72
2021/10/19 14:21:34;;;;;;;6.33;3.43;;;;;;;14.45;82.51;97567.44;5036092;28;20506;-73
2021/10/19 14:24:00;;;;;;;6.18;3.35;;;;;;;14.47;81.80;97568.69;5036200;28;20440;-72
2021/10/19 14:26:25;;;;;;;6.30;3.67;;;;;;;14.47;81.80;97555.06;5036041;28;20068;-72
2021/10/19 14:28:50;;;;;;;6.20;3.43;;;;;;;14.50;82.03;97557.09;5036139;28;20036;-73
2021/10/19 14:31:16;;;;;;;6.30;3.63;;;;;;;14.56;80.30;97562.31;5035940;28;20037;-72
2021/10/19 14:33:44;;;;;;;6.57;3.63;;;;;;;14.57;80.99;97551.06;5035968;28;20472;-73
2021/10/19 14:36:09;;;;;;;6.97;3.77;;;;;;;14.62;80.71;97550.06;5035938;28;20025;-71
2021/10/19 14:38:36;;;;;;;5.95;3.20;;;;;;;14.61;81.44;97546.53;5034561;28;20036;-72
2021/10/19 14:41:02;;;;;;;6.93;3.17;;;;;;;14.58;81.06;97546.41;5035694;28;20036;-72
2021/10/19 14:43:28;;;;;;;8.20;3.45;;;;;;;14.62;80.41;97550.84;5035853;28;20045;-72
2021/10/19 14:45:54;;;;;;;7.10;3.50;;;;;;;14.59;80.48;97554.25;5035798;28;20022;-73
2021/10/19 14:48:20;;;;;;;6.33;3.60;;;;;;;14.55;80.33;97547.91;5034535;28;20116;-72
2021/10/19 14:50:45;;;;;;;6.35;3.50;;;;;;;14.56;79.90;97554.16;5034281;28;20022;-73
2021/10/19 14:53:11;;;;;;;6.43;3.40;;;;;;;14.61;78.92;97553.91;5035619;28;20021;-72
2021/10/19 14:55:36;;;;;;;5.88;3.47;;;;;;;14.61;79.63;97545.72;5035512;28;20100;-73
2021/10/19 14:58:02;;;;;;;6.53;3.63;;;;;;;14.64;78.99;97539.59;5035669;28;20044;-73
2021/10/19 15:00:31;;;;;;;5.80;3.17;;;;;;;14.64;78.67;97537.66;5034166;28;20030;-72
2021/10/19 15:02:56;;;;;;;6.32;3.50;;;;;;;14.59;79.82;97545.28;5018288;28;20072;-72
2021/10/19 15:05:21;;;;;;;6.40;3.47;;;;;;;14.57;79.60;97542.88;5035492;28;20025;-72
2021/10/19 15:07:47;;;;;;;6.50;3.17;;;;;;;14.50;79.91;97545.41;5034948;28;20037;-72
2021/10/19 15:10:14;;;;;;;5.88;3.28;;;;;;;14.51;79.81;97533.38;5035210;28;20032;-72
2021/10/19 15:12:40;;;;;;;5.47;2.95;;;;;;;14.49;79.94;97527.50;5035348;28;20032;-72
2021/10/19 15:15:05;;;;;;;7.30;3.47;;;;;;;14.52;79.92;97534.97;5033905;28;20017;-73
2021/10/19 15:17:31;;;;;;;5.70;3.40;;;;;;;14.53;78.96;97535.75;5035264;28;20171;-73
2021/10/19 15:19:56;;;;;;;5.70;3.20;;;;;;;14.54;78.88;97523.72;5035159;28;20399;-73
2021/10/19 15:22:24;;;;;;;7.10;3.77;;;;;;;14.55;79.12;97528.84;5033754;28;20108;-72
2021/10/19 15:24:50;;;;;;;6.88;3.38;;;;;;;14.55;79.29;97528.03;5034063;28;20024;-72
2021/10/19 15:27:15;;;;;;;6.90;3.83;;;;;;;14.59;79.11;97515.31;5035092;28;20037;-72
2021/10/19 15:29:40;;;;;;;7.50;3.70;;;;;;;14.58;79.57;97519.16;5035061;28;20084;-72
2021/10/19 15:32:06;;;;;;;6.10;3.27;;;;;;;14.61;79.59;97518.50;5034798;28;20104;-73
2021/10/19 15:34:31;;;;;;;6.87;3.07;;;;;;;14.67;79.38;97511.66;5033495;28;20379;-72
2021/10/19 15:36:57;;;;;;;6.28;3.50;;;;;;;14.73;79.61;97502.91;5034770;28;20076;-72
2021/10/19 15:39:23;;;;;;;6.63;3.73;;;;;;;14.76;78.85;97506.88;5034851;28;20025;-73
2021/10/19 15:41:48;;;;;;;7.32;3.50;;;;;;;14.77;78.68;97506.53;5033656;28;20487;-72
2021/10/19 15:44:13;;;;;;;6.57;3.50;;;;;;;14.78;78.20;97504.56;5034749;28;20029;-73
2021/10/19 15:46:41;;;;;;;6.27;3.13;;;;;;;14.76;78.76;97501.44;5034676;28;20029;-72
2021/10/19 15:49:07;;;;;;;6.95;3.20;;;;;;;14.66;79.60;97499.97;5034610;28;20103;-73
2021/10/19 15:51:34;;;;;;;5.70;3.28;;;;;;;14.60;79.44;97512.25;5034383;28;20104;-72
2021/10/19 15:53:59;;;;;;;6.63;3.50;;;;;;;14.54;80.38;97504.66;5033326;28;20485;-72
2021/10/19 15:56:25;;;;;;;6.20;3.55;;;;;;;14.48;80.35;97506.84;5034396;28;20104;-72
2021/10/19 15:58:51;;;;;;;6.10;3.70;;;;;;;14.42;80.78;97505.50;5034519;28;20029;-72
2021/10/19 16:01:16;;;;;;;6.97;3.43;;;;;;;14.36;80.97;97510.31;5034251;28;20021;-72
2021/10/19 16:03:41;;;;;;;6.97;3.60;;;;;;;14.37;80.62;97519.28;5034430;28;20123;-72
2021/10/19 16:06:07;;;;;;;8.02;3.67;;;;;;;14.33;80.59;97511.03;5032950;28;20025;-72
2021/10/19 16:08:32;;;;;;;5.93;3.17;;;;;;;14.34;80.30;97501.72;5034323;28;20028;-73
2021/10/19 16:11:00;;;;;;;6.63;3.40;;;;;;;14.30;80.39;97506.25;5034067;28;20387;-72
2021/10/19 16:13:25;;;;;;;6.88;3.72;;;;;;;14.29;80.57;97506.59;5034244;28;20033;-72
2021/10/19 16:15:51;;;;;;;6.57;3.58;;;;;;;14.22;81.04;97506.38;5034000;28;20029;-72
2021/10/19 16:18:17;;;;;;;8.50;3.60;;;;;;;14.21;81.03;97500.13;5033627;28;20079;-72
2021/10/19 16:20:43;;;;;;;6.90;3.60;;;;;;;14.25;80.42;97506.50;5032125;28;20025;-73
2021/10/19 16:23:09;;;;;;;6.32;3.53;;;;;;;14.20;80.62;97493.13;5032745;28;20029;-72
2021/10/19 16:25:35;;;;;;;6.37;3.73;;;;;;;14.25;80.09;97501.06;5034186;28;20045;-72
2021/10/19 16:28:01;;;;;;;6.60;3.50;;;;;;;14.25;80.56;97497.53;5032686;28;20078;-72
2021/10/19 16:30:26;;;;;;;7.55;3.60;;;;;;;14.25;80.32;97495.59;5033782;28;20029;-72
2021/10/19 16:32:52;;;;;;;6.73;3.30;;;;;;;14.26;80.19;97502.63;5033830;28;20033;-72
2021/10/19 16:35:17;;;;;;;6.90;3.27;;;;;;;14.25;80.33;97497.53;5033605;28;20030;-72
2021/10/19 16:37:42;;;;;;;7.20;4.07;;;;;;;14.18;80.77;97500.03;5033635;28;20060;-72
2021/10/19 16:40:08;;;;;;;6.37;3.30;;;;;;;14.16;81.05;97499.56;5033725;28;20025;-72
2021/10/19 16:42:34;;;;;;;7.30;3.55;;;;;;;14.11;81.43;97501.41;5033592;28;20029;-72
2021/10/19 16:45:00;;;;;;;5.95;3.08;;;;;;;14.10;81.32;97502.53;5046217;28;20469;-72
2021/10/19 16:47:25;;;;;;;6.43;3.70;;;;;;;14.03;81.92;97490.63;5054145;28;20071;-72
2021/10/19 16:49:52;;;;;;;6.27;3.30;;;;;;;14.00;82.06;97494.81;5041511;28;20497;-73
2021/10/19 16:52:17;;;;;;;6.57;3.40;;;;;;;13.97;82.21;97495.50;5033785;28;20025;-73
2021/10/19 16:54:42;;;;;;;6.83;3.67;;;;;;;13.92;82.43;97494.94;5031767;28;20112;-73
2021/10/19 16:57:08;;;;;;;7.53;3.85;;;;;;;13.82;83.07;97496.19;5023833;28;20041;-72
2021/10/19 16:59:33;;;;;;;7.03;4.30;;;;;;;13.78;83.24;97495.28;5025198;28;20030;-72
2021/10/19 17:01:59;;;;;;;6.40;3.60;;;;;;;13.74;83.49;97499.81;5023591;28;20029;-72
2021/10/19 17:04:28;;;;;;;6.27;3.50;;;;;;;13.69;84.05;97500.84;5028703;28;20018;-72
2021/10/19 17:06:54;;;;;;;6.55;3.17;;;;;;;13.66;84.15;97498.78;5022189;28;20117;-72